sensor_id;sensor_type;location;lat;lon;timestamp;temperature;humidity
14850;DHT22;7517;48.400;11.770;2022-09-23T00:01:33;11.30;65.80
14850;DHT22;7517;48.400;11.770;2022-09-23T00:04:00;11.30;65.90
14850;DHT22;7517;48.400;11.770;2022-09-23T00:06:28;11.20;66.10
14850;DHT22;7517;48.400;11.770;2022-09-23T00:08:57;11.20;66.10
14850;DHT22;7517;48.400;11.770;2022-09-23T00:11:27;11.20;66.10
14850;DHT22;7517;48.400;11.770;2022-09-23T00:13:56;11.20;66.10
14850;DHT22;7517;48.400;11.770;2022-09-23T00:16:27;11.20;66.00
14850;DHT22;7517;48.400;11.770;2022-09-23T00:18:57;11.20;66.00
14850;DHT22;7517;48.400;11.770;2022-09-23T00:21:25;11.10;65.80
14850;DHT22;7517;48.400;11.770;2022-09-23T00:23:53;11.10;65.80
14850;DHT22;7517;48.400;11.770;2022-09-23T00:26:22;11.10;65.70
14850;DHT22;7517;48.400;11.770;2022-09-23T00:28:50;11.00;65.70
14850;DHT22;7517;48.400;11.770;2022-09-23T00:31:19;11.00;65.70
14850;DHT22;7517;48.400;11.770;2022-09-23T00:33:51;11.00;65.70
14850;DHT22;7517;48.400;11.770;2022-09-23T00:36:23;11.00;65.80
14850;DHT22;7517;48.400;11.770;2022-09-23T00:38:51;10.90;65.80
14850;DHT22;7517;48.400;11.770;2022-09-23T00:41:21;10.90;65.90
14850;DHT22;7517;48.400;11.770;2022-09-23T00:43:50;10.80;66.00
14850;DHT22;7517;48.400;11.770;2022-09-23T00:46:38;10.80;66.10
14850;DHT22;7517;48.400;11.770;2022-09-23T00:49:17;10.80;66.20
14850;DHT22;7517;48.400;11.770;2022-09-23T00:51:59;10.90;66.00
14850;DHT22;7517;48.400;11.770;2022-09-23T00:54:32;10.80;66.10
14850;DHT22;7517;48.400;11.770;2022-09-23T00:57:01;10.80;66.00
14850;DHT22;7517;48.400;11.770;2022-09-23T00:59:33;10.80;66.00
14850;DHT22;7517;48.400;11.770;2022-09-23T01:02:02;10.70;65.90
14850;DHT22;7517;48.400;11.770;2022-09-23T01:04:31;10.70;65.90
14850;DHT22;7517;48.400;11.770;2022-09-23T01:06:59;10.70;66.00
14850;DHT22;7517;48.400;11.770;2022-09-23T01:09:27;10.60;66.00
14850;DHT22;7517;48.400;11.770;2022-09-23T01:12:02;10.60;66.00
14850;DHT22;7517;48.400;11.770;2022-09-23T01:14:44;10.60;66.10
14850;DHT22;7517;48.400;11.770;2022-09-23T01:17:25;10.60;66.00
14850;DHT22;7517;48.400;11.770;2022-09-23T01:20:27;10.60;66.10
14850;DHT22;7517;48.400;11.770;2022-09-23T01:32:55;10.40;66.10
14850;DHT22;7517;48.400;11.770;2022-09-23T01:35:46;10.40;66.20
14850;DHT22;7517;48.400;11.770;2022-09-23T01:38:40;10.40;66.10
14850;DHT22;7517;48.400;11.770;2022-09-23T01:44:23;10.30;66.50
14850;DHT22;7517;48.400;11.770;2022-09-23T01:46:58;10.30;66.40
14850;DHT22;7517;48.400;11.770;2022-09-23T01:49:43;10.20;66.40
14850;DHT22;7517;48.400;11.770;2022-09-23T01:52:19;10.20;66.50
14850;DHT22;7517;48.400;11.770;2022-09-23T01:54:56;10.20;66.60
14850;DHT22;7517;48.400;11.770;2022-09-23T01:57:31;10.20;66.70
14850;DHT22;7517;48.400;11.770;2022-09-23T02:00:05;10.10;66.70
14850;DHT22;7517;48.400;11.770;2022-09-23T02:02:38;10.10;66.70
14850;DHT22;7517;48.400;11.770;2022-09-23T02:05:17;10.10;66.70
14850;DHT22;7517;48.400;11.770;2022-09-23T02:07:53;10.10;66.80
14850;DHT22;7517;48.400;11.770;2022-09-23T02:10:27;10.00;66.80
14850;DHT22;7517;48.400;11.770;2022-09-23T02:13:02;10.00;66.90
14850;DHT22;7517;48.400;11.770;2022-09-23T02:15:37;10.00;67.00
14850;DHT22;7517;48.400;11.770;2022-09-23T02:18:14;10.00;67.00
14850;DHT22;7517;48.400;11.770;2022-09-23T02:20:51;10.00;67.00
14850;DHT22;7517;48.400;11.770;2022-09-23T02:23:31;10.00;67.30
14850;DHT22;7517;48.400;11.770;2022-09-23T02:26:05;10.00;67.40
14850;DHT22;7517;48.400;11.770;2022-09-23T02:28:42;10.00;67.30
14850;DHT22;7517;48.400;11.770;2022-09-23T02:31:23;10.00;67.40
14850;DHT22;7517;48.400;11.770;2022-09-23T02:33:59;10.00;68.10
14850;DHT22;7517;48.400;11.770;2022-09-23T02:36:41;9.90;67.30
14850;DHT22;7517;48.400;11.770;2022-09-23T02:39:15;10.00;67.50
14850;DHT22;7517;48.400;11.770;2022-09-23T02:41:50;10.00;67.40
14850;DHT22;7517;48.400;11.770;2022-09-23T02:44:25;10.00;67.40
14850;DHT22;7517;48.400;11.770;2022-09-23T02:46:53;9.90;67.30
14850;DHT22;7517;48.400;11.770;2022-09-23T02:49:22;9.90;67.30
14850;DHT22;7517;48.400;11.770;2022-09-23T02:51:54;9.90;67.30
14850;DHT22;7517;48.400;11.770;2022-09-23T02:54:28;9.90;67.30
14850;DHT22;7517;48.400;11.770;2022-09-23T02:56:59;9.90;67.20
14850;DHT22;7517;48.400;11.770;2022-09-23T02:59:29;10.00;67.40
14850;DHT22;7517;48.400;11.770;2022-09-23T03:05:16;9.90;67.80
14850;DHT22;7517;48.400;11.770;2022-09-23T03:07:57;9.90;67.80
14850;DHT22;7517;48.400;11.770;2022-09-23T03:10:42;9.90;67.90
14850;DHT22;7517;48.400;11.770;2022-09-23T03:13:27;9.90;67.90
14850;DHT22;7517;48.400;11.770;2022-09-23T03:16:04;9.90;67.90
14850;DHT22;7517;48.400;11.770;2022-09-23T03:18:39;9.90;67.90
14850;DHT22;7517;48.400;11.770;2022-09-23T03:21:15;9.90;67.90
14850;DHT22;7517;48.400;11.770;2022-09-23T03:23:49;9.90;68.00
14850;DHT22;7517;48.400;11.770;2022-09-23T03:26:20;9.90;68.00
14850;DHT22;7517;48.400;11.770;2022-09-23T03:28:51;9.90;68.00
14850;DHT22;7517;48.400;11.770;2022-09-23T03:31:19;9.90;67.90
14850;DHT22;7517;48.400;11.770;2022-09-23T03:33:49;9.90;67.90
14850;DHT22;7517;48.400;11.770;2022-09-23T03:36:24;9.90;68.00
14850;DHT22;7517;48.400;11.770;2022-09-23T03:39:20;9.90;67.90
14850;DHT22;7517;48.400;11.770;2022-09-23T03:41:59;9.90;67.90
14850;DHT22;7517;48.400;11.770;2022-09-23T03:44:34;9.80;67.70
14850;DHT22;7517;48.400;11.770;2022-09-23T03:47:04;9.80;67.80
14850;DHT22;7517;48.400;11.770;2022-09-23T03:49:34;9.80;67.80
14850;DHT22;7517;48.400;11.770;2022-09-23T03:52:04;9.80;67.90
14850;DHT22;7517;48.400;11.770;2022-09-23T03:54:33;9.80;67.90
14850;DHT22;7517;48.400;11.770;2022-09-23T03:57:01;9.80;67.90
14850;DHT22;7517;48.400;11.770;2022-09-23T03:59:29;9.80;67.90
14850;DHT22;7517;48.400;11.770;2022-09-23T04:01:57;9.80;67.80
14850;DHT22;7517;48.400;11.770;2022-09-23T04:04:25;9.70;67.70
14850;DHT22;7517;48.400;11.770;2022-09-23T04:07:08;9.70;67.70
14850;DHT22;7517;48.400;11.770;2022-09-23T04:09:37;9.80;67.90
14850;DHT22;7517;48.400;11.770;2022-09-23T04:12:05;9.70;67.80
14850;DHT22;7517;48.400;11.770;2022-09-23T04:14:37;9.70;67.80
14850;DHT22;7517;48.400;11.770;2022-09-23T04:17:04;9.70;67.80
14850;DHT22;7517;48.400;11.770;2022-09-23T04:19:32;9.70;67.80
14850;DHT22;7517;48.400;11.770;2022-09-23T04:21:59;9.70;67.80
14850;DHT22;7517;48.400;11.770;2022-09-23T04:24:27;9.70;67.80
14850;DHT22;7517;48.400;11.770;2022-09-23T04:26:56;9.60;67.60
14850;DHT22;7517;48.400;11.770;2022-09-23T04:29:25;9.60;67.60
14850;DHT22;7517;48.400;11.770;2022-09-23T04:31:53;9.60;67.50
14850;DHT22;7517;48.400;11.770;2022-09-23T04:34:20;9.60;67.50
14850;DHT22;7517;48.400;11.770;2022-09-23T04:36:50;9.60;67.40
14850;DHT22;7517;48.400;11.770;2022-09-23T04:39:18;9.50;67.30
14850;DHT22;7517;48.400;11.770;2022-09-23T04:41:45;9.50;67.30
14850;DHT22;7517;48.400;11.770;2022-09-23T04:44:15;9.50;67.40
14850;DHT22;7517;48.400;11.770;2022-09-23T04:46:42;9.40;67.30
14850;DHT22;7517;48.400;11.770;2022-09-23T04:49:12;9.40;67.30
14850;DHT22;7517;48.400;11.770;2022-09-23T04:51:40;9.40;67.30
14850;DHT22;7517;48.400;11.770;2022-09-23T04:54:08;9.40;67.50
14850;DHT22;7517;48.400;11.770;2022-09-23T04:56:36;9.40;67.90
14850;DHT22;7517;48.400;11.770;2022-09-23T04:59:04;9.30;68.00
14850;DHT22;7517;48.400;11.770;2022-09-23T05:01:33;9.40;68.10
14850;DHT22;7517;48.400;11.770;2022-09-23T05:04:03;9.40;68.30
14850;DHT22;7517;48.400;11.770;2022-09-23T05:06:33;9.40;68.40
14850;DHT22;7517;48.400;11.770;2022-09-23T05:09:02;9.40;68.40
14850;DHT22;7517;48.400;11.770;2022-09-23T05:11:31;9.40;68.50
14850;DHT22;7517;48.400;11.770;2022-09-23T05:13:59;9.40;68.50
14850;DHT22;7517;48.400;11.770;2022-09-23T05:16:26;9.40;68.60
14850;DHT22;7517;48.400;11.770;2022-09-23T05:18:55;9.50;68.80
14850;DHT22;7517;48.400;11.770;2022-09-23T05:21:24;9.50;68.70
14850;DHT22;7517;48.400;11.770;2022-09-23T05:23:54;9.50;68.60
14850;DHT22;7517;48.400;11.770;2022-09-23T05:26:26;9.50;68.50
14850;DHT22;7517;48.400;11.770;2022-09-23T05:28:57;9.50;68.40
14850;DHT22;7517;48.400;11.770;2022-09-23T05:31:26;9.50;68.30
14850;DHT22;7517;48.400;11.770;2022-09-23T05:33:57;9.60;68.30
14850;DHT22;7517;48.400;11.770;2022-09-23T05:36:26;9.50;68.20
14850;DHT22;7517;48.400;11.770;2022-09-23T05:38:54;9.60;68.20
14850;DHT22;7517;48.400;11.770;2022-09-23T05:41:24;9.50;68.10
14850;DHT22;7517;48.400;11.770;2022-09-23T05:43:53;9.50;68.10
14850;DHT22;7517;48.400;11.770;2022-09-23T05:46:23;9.50;68.10
14850;DHT22;7517;48.400;11.770;2022-09-23T05:48:53;9.50;68.10
14850;DHT22;7517;48.400;11.770;2022-09-23T05:51:24;9.50;68.10
14850;DHT22;7517;48.400;11.770;2022-09-23T05:53:53;9.60;68.20
14850;DHT22;7517;48.400;11.770;2022-09-23T05:56:23;9.50;68.20
14850;DHT22;7517;48.400;11.770;2022-09-23T05:58:54;9.50;68.20
14850;DHT22;7517;48.400;11.770;2022-09-23T06:01:24;9.50;69.10
14850;DHT22;7517;48.400;11.770;2022-09-23T06:03:54;9.50;68.50
14850;DHT22;7517;48.400;11.770;2022-09-23T06:06:26;9.50;68.60
14850;DHT22;7517;48.400;11.770;2022-09-23T06:08:54;9.50;68.80
14850;DHT22;7517;48.400;11.770;2022-09-23T06:11:23;9.50;68.80
14850;DHT22;7517;48.400;11.770;2022-09-23T06:13:53;9.50;69.00
14850;DHT22;7517;48.400;11.770;2022-09-23T06:16:22;9.50;69.40
14850;DHT22;7517;48.400;11.770;2022-09-23T06:18:49;9.60;69.70
14850;DHT22;7517;48.400;11.770;2022-09-23T06:21:17;9.60;69.90
14850;DHT22;7517;48.400;11.770;2022-09-23T06:23:50;9.60;70.10
14850;DHT22;7517;48.400;11.770;2022-09-23T06:26:41;9.70;70.30
14850;DHT22;7517;48.400;11.770;2022-09-23T06:29:09;9.70;70.80
14850;DHT22;7517;48.400;11.770;2022-09-23T06:31:37;9.80;70.50
14850;DHT22;7517;48.400;11.770;2022-09-23T06:34:07;9.80;70.50
14850;DHT22;7517;48.400;11.770;2022-09-23T06:36:37;9.80;70.50
14850;DHT22;7517;48.400;11.770;2022-09-23T06:39:04;9.90;70.70
14850;DHT22;7517;48.400;11.770;2022-09-23T06:41:31;9.90;70.80
14850;DHT22;7517;48.400;11.770;2022-09-23T06:43:58;9.90;70.90
14850;DHT22;7517;48.400;11.770;2022-09-23T06:46:26;10.00;71.90
14850;DHT22;7517;48.400;11.770;2022-09-23T06:48:53;10.00;71.50
14850;DHT22;7517;48.400;11.770;2022-09-23T06:51:21;10.10;71.80
14850;DHT22;7517;48.400;11.770;2022-09-23T06:53:50;10.20;71.90
14850;DHT22;7517;48.400;11.770;2022-09-23T06:56:17;10.20;72.00
14850;DHT22;7517;48.400;11.770;2022-09-23T06:58:47;10.30;72.20
14850;DHT22;7517;48.400;11.770;2022-09-23T07:01:17;10.40;72.50
14850;DHT22;7517;48.400;11.770;2022-09-23T07:03:45;10.40;72.70
14850;DHT22;7517;48.400;11.770;2022-09-23T07:06:13;10.50;72.90
14850;DHT22;7517;48.400;11.770;2022-09-23T07:08:42;10.60;73.10
14850;DHT22;7517;48.400;11.770;2022-09-23T07:11:13;10.70;73.40
14850;DHT22;7517;48.400;11.770;2022-09-23T07:13:43;10.80;73.60
14850;DHT22;7517;48.400;11.770;2022-09-23T07:16:11;10.80;73.70
14850;DHT22;7517;48.400;11.770;2022-09-23T07:18:38;10.90;73.80
14850;DHT22;7517;48.400;11.770;2022-09-23T07:21:09;11.10;73.90
14850;DHT22;7517;48.400;11.770;2022-09-23T07:23:39;11.10;74.00
14850;DHT22;7517;48.400;11.770;2022-09-23T07:26:07;11.20;74.10
14850;DHT22;7517;48.400;11.770;2022-09-23T07:28:35;11.30;74.20
14850;DHT22;7517;48.400;11.770;2022-09-23T07:31:05;11.40;74.30
14850;DHT22;7517;48.400;11.770;2022-09-23T07:33:38;11.50;74.40
14850;DHT22;7517;48.400;11.770;2022-09-23T07:36:10;11.70;74.40
14850;DHT22;7517;48.400;11.770;2022-09-23T07:38:39;11.80;74.40
14850;DHT22;7517;48.400;11.770;2022-09-23T07:41:08;12.00;74.60
14850;DHT22;7517;48.400;11.770;2022-09-23T07:43:39;12.10;74.60
14850;DHT22;7517;48.400;11.770;2022-09-23T07:46:10;12.20;74.50
14850;DHT22;7517;48.400;11.770;2022-09-23T07:48:41;12.40;74.40
14850;DHT22;7517;48.400;11.770;2022-09-23T07:51:11;12.50;74.30
14850;DHT22;7517;48.400;11.770;2022-09-23T07:53:44;12.60;74.10
14850;DHT22;7517;48.400;11.770;2022-09-23T07:56:12;12.80;74.00
14850;DHT22;7517;48.400;11.770;2022-09-23T07:58:41;12.90;73.70
14850;DHT22;7517;48.400;11.770;2022-09-23T08:01:11;13.10;73.40
14850;DHT22;7517;48.400;11.770;2022-09-23T08:03:41;13.30;73.00
14850;DHT22;7517;48.400;11.770;2022-09-23T08:06:12;13.40;72.80
14850;DHT22;7517;48.400;11.770;2022-09-23T08:08:40;13.50;72.60
14850;DHT22;7517;48.400;11.770;2022-09-23T08:11:10;13.70;72.20
14850;DHT22;7517;48.400;11.770;2022-09-23T08:13:38;13.80;71.90
14850;DHT22;7517;48.400;11.770;2022-09-23T08:16:08;14.00;71.90
14850;DHT22;7517;48.400;11.770;2022-09-23T08:18:36;14.10;71.70
14850;DHT22;7517;48.400;11.770;2022-09-23T08:21:04;14.20;71.60
14850;DHT22;7517;48.400;11.770;2022-09-23T08:23:34;14.40;71.40
14850;DHT22;7517;48.400;11.770;2022-09-23T08:26:03;14.50;71.40
14850;DHT22;7517;48.400;11.770;2022-09-23T08:28:35;14.60;71.30
14850;DHT22;7517;48.400;11.770;2022-09-23T08:31:04;14.80;71.20
14850;DHT22;7517;48.400;11.770;2022-09-23T08:33:32;14.90;71.10
14850;DHT22;7517;48.400;11.770;2022-09-23T08:36:00;15.00;71.10
14850;DHT22;7517;48.400;11.770;2022-09-23T08:38:29;15.10;70.90
14850;DHT22;7517;48.400;11.770;2022-09-23T08:41:04;15.20;70.80
14850;DHT22;7517;48.400;11.770;2022-09-23T08:43:35;15.40;70.90
14850;DHT22;7517;48.400;11.770;2022-09-23T08:46:08;15.50;70.60
14850;DHT22;7517;48.400;11.770;2022-09-23T08:48:41;15.70;70.30
14850;DHT22;7517;48.400;11.770;2022-09-23T08:51:13;15.80;70.40
14850;DHT22;7517;48.400;11.770;2022-09-23T08:53:43;15.90;70.10
14850;DHT22;7517;48.400;11.770;2022-09-23T08:56:13;16.10;69.50
14850;DHT22;7517;48.400;11.770;2022-09-23T08:58:58;16.20;68.90
14850;DHT22;7517;48.400;11.770;2022-09-23T09:01:36;16.40;68.60
14850;DHT22;7517;48.400;11.770;2022-09-23T09:04:14;16.50;69.30
14850;DHT22;7517;48.400;11.770;2022-09-23T09:06:46;16.70;68.40
14850;DHT22;7517;48.400;11.770;2022-09-23T09:09:22;16.80;68.30
14850;DHT22;7517;48.400;11.770;2022-09-23T09:11:56;17.00;68.10
14850;DHT22;7517;48.400;11.770;2022-09-23T09:14:33;17.10;67.90
14850;DHT22;7517;48.400;11.770;2022-09-23T09:17:11;17.30;67.70
14850;DHT22;7517;48.400;11.770;2022-09-23T09:19:55;17.40;67.50
14850;DHT22;7517;48.400;11.770;2022-09-23T09:22:41;17.50;67.30
14850;DHT22;7517;48.400;11.770;2022-09-23T09:25:35;17.70;67.20
14850;DHT22;7517;48.400;11.770;2022-09-23T09:28:13;17.80;66.90
14850;DHT22;7517;48.400;11.770;2022-09-23T09:30:46;17.90;66.90
14850;DHT22;7517;48.400;11.770;2022-09-23T09:33:24;18.10;66.80
14850;DHT22;7517;48.400;11.770;2022-09-23T09:36:14;18.20;65.50
14850;DHT22;7517;48.400;11.770;2022-09-23T09:38:49;18.40;64.70
14850;DHT22;7517;48.400;11.770;2022-09-23T09:41:18;18.50;65.20
14850;DHT22;7517;48.400;11.770;2022-09-23T09:43:46;18.60;64.90
14850;DHT22;7517;48.400;11.770;2022-09-23T09:46:48;18.80;64.40
14850;DHT22;7517;48.400;11.770;2022-09-23T09:49:30;19.00;63.50
14850;DHT22;7517;48.400;11.770;2022-09-23T09:55:23;19.30;62.70
14850;DHT22;7517;48.400;11.770;2022-09-23T09:57:55;19.50;62.50
14850;DHT22;7517;48.400;11.770;2022-09-23T10:00:39;19.60;63.00
14850;DHT22;7517;48.400;11.770;2022-09-23T10:03:29;19.80;62.20
14850;DHT22;7517;48.400;11.770;2022-09-23T10:06:13;20.00;62.10
14850;DHT22;7517;48.400;11.770;2022-09-23T10:08:48;20.20;61.30
14850;DHT22;7517;48.400;11.770;2022-09-23T10:11:31;20.40;61.10
14850;DHT22;7517;48.400;11.770;2022-09-23T10:14:05;20.60;61.50
14850;DHT22;7517;48.400;11.770;2022-09-23T10:16:38;20.80;60.10
14850;DHT22;7517;48.400;11.770;2022-09-23T10:19:23;20.90;59.90
14850;DHT22;7517;48.400;11.770;2022-09-23T10:21:55;21.10;59.20
14850;DHT22;7517;48.400;11.770;2022-09-23T10:24:28;21.30;58.80
14850;DHT22;7517;48.400;11.770;2022-09-23T10:26:59;21.50;58.90
14850;DHT22;7517;48.400;11.770;2022-09-23T10:29:30;21.60;58.70
14850;DHT22;7517;48.400;11.770;2022-09-23T10:32:19;21.70;58.70
14850;DHT22;7517;48.400;11.770;2022-09-23T10:34:54;21.90;57.70
14850;DHT22;7517;48.400;11.770;2022-09-23T10:37:30;22.00;58.30
14850;DHT22;7517;48.400;11.770;2022-09-23T10:40:11;22.10;57.20
14850;DHT22;7517;48.400;11.770;2022-09-23T10:46:18;22.20;56.20
14850;DHT22;7517;48.400;11.770;2022-09-23T10:49:29;22.20;55.90
14850;DHT22;7517;48.400;11.770;2022-09-23T10:52:22;22.20;54.30
14850;DHT22;7517;48.400;11.770;2022-09-23T10:55:11;22.10;54.60
14850;DHT22;7517;48.400;11.770;2022-09-23T10:58:01;22.10;54.70
14850;DHT22;7517;48.400;11.770;2022-09-23T11:00:48;22.00;54.70
14850;DHT22;7517;48.400;11.770;2022-09-23T11:03:55;21.90;54.80
14850;DHT22;7517;48.400;11.770;2022-09-23T11:06:39;21.80;55.00
14850;DHT22;7517;48.400;11.770;2022-09-23T11:09:23;21.70;55.00
14850;DHT22;7517;48.400;11.770;2022-09-23T11:12:11;21.60;54.10
14850;DHT22;7517;48.400;11.770;2022-09-23T11:15:02;21.50;53.70
14850;DHT22;7517;48.400;11.770;2022-09-23T11:18:05;21.50;54.30
14850;DHT22;7517;48.400;11.770;2022-09-23T11:20:56;21.40;54.10
14850;DHT22;7517;48.400;11.770;2022-09-23T11:23:44;21.30;54.80
14850;DHT22;7517;48.400;11.770;2022-09-23T11:26:34;21.30;54.90
14850;DHT22;7517;48.400;11.770;2022-09-23T11:29:28;21.20;55.20
14850;DHT22;7517;48.400;11.770;2022-09-23T11:32:31;21.20;55.40
14850;DHT22;7517;48.400;11.770;2022-09-23T11:35:15;21.20;55.40
14850;DHT22;7517;48.400;11.770;2022-09-23T11:37:48;21.10;55.00
14850;DHT22;7517;48.400;11.770;2022-09-23T11:40:21;21.10;55.00
14850;DHT22;7517;48.400;11.770;2022-09-23T11:42:59;21.10;54.90
14850;DHT22;7517;48.400;11.770;2022-09-23T11:45:36;21.10;54.40
14850;DHT22;7517;48.400;11.770;2022-09-23T11:48:14;21.10;54.80
14850;DHT22;7517;48.400;11.770;2022-09-23T11:50:46;21.10;54.60
14850;DHT22;7517;48.400;11.770;2022-09-23T11:53:22;21.10;54.90
14850;DHT22;7517;48.400;11.770;2022-09-23T11:56:00;21.10;55.00
14850;DHT22;7517;48.400;11.770;2022-09-23T11:58:37;21.10;54.80
14850;DHT22;7517;48.400;11.770;2022-09-23T12:01:12;21.10;54.50
14850;DHT22;7517;48.400;11.770;2022-09-23T12:03:50;21.10;54.40
14850;DHT22;7517;48.400;11.770;2022-09-23T12:06:27;21.20;53.80
14850;DHT22;7517;48.400;11.770;2022-09-23T12:09:01;21.20;53.60
14850;DHT22;7517;48.400;11.770;2022-09-23T12:11:40;21.20;53.40
14850;DHT22;7517;48.400;11.770;2022-09-23T12:14:22;21.20;53.20
14850;DHT22;7517;48.400;11.770;2022-09-23T12:17:05;21.30;53.40
14850;DHT22;7517;48.400;11.770;2022-09-23T12:20:13;21.30;53.20
14850;DHT22;7517;48.400;11.770;2022-09-23T12:23:04;21.40;53.30
14850;DHT22;7517;48.400;11.770;2022-09-23T12:25:43;21.40;53.20
14850;DHT22;7517;48.400;11.770;2022-09-23T12:28:19;21.40;53.00
14850;DHT22;7517;48.400;11.770;2022-09-23T12:30:54;21.40;52.40
14850;DHT22;7517;48.400;11.770;2022-09-23T12:33:33;21.40;52.60
14850;DHT22;7517;48.400;11.770;2022-09-23T12:36:03;21.40;52.40
14850;DHT22;7517;48.400;11.770;2022-09-23T12:38:37;21.40;52.70
14850;DHT22;7517;48.400;11.770;2022-09-23T12:41:19;21.40;52.90
14850;DHT22;7517;48.400;11.770;2022-09-23T12:43:54;21.40;52.20
14850;DHT22;7517;48.400;11.770;2022-09-23T12:46:26;21.40;52.90
14850;DHT22;7517;48.400;11.770;2022-09-23T12:49:02;21.40;52.50
14850;DHT22;7517;48.400;11.770;2022-09-23T12:51:32;21.40;52.30
14850;DHT22;7517;48.400;11.770;2022-09-23T12:54:22;21.40;52.70
14850;DHT22;7517;48.400;11.770;2022-09-23T12:57:01;21.40;52.60
14850;DHT22;7517;48.400;11.770;2022-09-23T12:59:32;21.40;52.50
14850;DHT22;7517;48.400;11.770;2022-09-23T13:02:28;21.40;52.70
14850;DHT22;7517;48.400;11.770;2022-09-23T13:05:18;21.50;52.80
14850;DHT22;7517;48.400;11.770;2022-09-23T13:08:07;21.50;52.80
14850;DHT22;7517;48.400;11.770;2022-09-23T13:10:41;21.50;53.00
14850;DHT22;7517;48.400;11.770;2022-09-23T13:13:21;21.50;52.90
14850;DHT22;7517;48.400;11.770;2022-09-23T13:16:09;21.50;52.90
14850;DHT22;7517;48.400;11.770;2022-09-23T13:18:57;21.50;52.90
14850;DHT22;7517;48.400;11.770;2022-09-23T13:22:02;21.50;52.90
14850;DHT22;7517;48.400;11.770;2022-09-23T13:24:40;21.50;52.60
14850;DHT22;7517;48.400;11.770;2022-09-23T13:27:24;21.50;52.90
14850;DHT22;7517;48.400;11.770;2022-09-23T13:29:59;21.50;52.00
14850;DHT22;7517;48.400;11.770;2022-09-23T13:32:34;21.50;52.70
14850;DHT22;7517;48.400;11.770;2022-09-23T13:35:17;21.50;52.90
14850;DHT22;7517;48.400;11.770;2022-09-23T13:37:51;21.50;52.30
14850;DHT22;7517;48.400;11.770;2022-09-23T13:40:20;21.50;52.40
14850;DHT22;7517;48.400;11.770;2022-09-23T13:42:54;21.50;52.30
14850;DHT22;7517;48.400;11.770;2022-09-23T13:45:26;21.50;52.10
14850;DHT22;7517;48.400;11.770;2022-09-23T13:48:00;21.50;52.60
14850;DHT22;7517;48.400;11.770;2022-09-23T13:50:31;21.50;52.50
14850;DHT22;7517;48.400;11.770;2022-09-23T13:53:06;21.50;52.40
14850;DHT22;7517;48.400;11.770;2022-09-23T13:55:37;21.60;52.20
14850;DHT22;7517;48.400;11.770;2022-09-23T13:58:14;21.60;52.30
14850;DHT22;7517;48.400;11.770;2022-09-23T14:00:45;21.60;52.10
14850;DHT22;7517;48.400;11.770;2022-09-23T14:03:24;21.60;52.10
14850;DHT22;7517;48.400;11.770;2022-09-23T14:05:54;21.60;51.60
14850;DHT22;7517;48.400;11.770;2022-09-23T14:08:22;21.50;52.10
14850;DHT22;7517;48.400;11.770;2022-09-23T14:10:50;21.50;52.20
14850;DHT22;7517;48.400;11.770;2022-09-23T14:13:21;21.50;52.60
14850;DHT22;7517;48.400;11.770;2022-09-23T14:15:52;21.50;52.90
14850;DHT22;7517;48.400;11.770;2022-09-23T14:18:29;21.50;52.70
14850;DHT22;7517;48.400;11.770;2022-09-23T14:21:02;21.50;52.30
14850;DHT22;7517;48.400;11.770;2022-09-23T14:23:30;21.50;52.20
14850;DHT22;7517;48.400;11.770;2022-09-23T14:25:58;21.50;52.10
14850;DHT22;7517;48.400;11.770;2022-09-23T14:28:27;21.50;51.90
14850;DHT22;7517;48.400;11.770;2022-09-23T14:30:55;21.50;52.00
14850;DHT22;7517;48.400;11.770;2022-09-23T14:33:25;21.50;52.10
14850;DHT22;7517;48.400;11.770;2022-09-23T14:36:04;21.50;52.10
14850;DHT22;7517;48.400;11.770;2022-09-23T14:39:00;21.50;51.70
14850;DHT22;7517;48.400;11.770;2022-09-23T14:41:33;21.50;51.60
14850;DHT22;7517;48.400;11.770;2022-09-23T14:44:04;21.50;52.00
14850;DHT22;7517;48.400;11.770;2022-09-23T14:46:34;21.50;52.20
14850;DHT22;7517;48.400;11.770;2022-09-23T14:49:07;21.50;52.20
14850;DHT22;7517;48.400;11.770;2022-09-23T14:51:47;21.50;52.10
14850;DHT22;7517;48.400;11.770;2022-09-23T14:54:31;21.50;52.00
14850;DHT22;7517;48.400;11.770;2022-09-23T14:57:16;21.50;51.80
14850;DHT22;7517;48.400;11.770;2022-09-23T14:59:51;21.50;52.00
14850;DHT22;7517;48.400;11.770;2022-09-23T15:02:32;21.50;52.10
14850;DHT22;7517;48.400;11.770;2022-09-23T15:05:12;21.50;52.20
14850;DHT22;7517;48.400;11.770;2022-09-23T15:07:46;21.50;52.10
14850;DHT22;7517;48.400;11.770;2022-09-23T15:10:20;21.50;52.10
14850;DHT22;7517;48.400;11.770;2022-09-23T15:12:51;21.50;52.00
14850;DHT22;7517;48.400;11.770;2022-09-23T15:15:24;21.50;52.30
14850;DHT22;7517;48.400;11.770;2022-09-23T15:18:03;21.50;52.30
14850;DHT22;7517;48.400;11.770;2022-09-23T15:20:31;21.50;52.30
14850;DHT22;7517;48.400;11.770;2022-09-23T15:23:01;21.50;52.90
14850;DHT22;7517;48.400;11.770;2022-09-23T15:25:31;21.50;52.50
14850;DHT22;7517;48.400;11.770;2022-09-23T15:28:16;21.50;52.20
14850;DHT22;7517;48.400;11.770;2022-09-23T15:30:51;21.50;51.90
14850;DHT22;7517;48.400;11.770;2022-09-23T15:33:18;21.50;52.10
14850;DHT22;7517;48.400;11.770;2022-09-23T15:35:51;21.50;52.20
14850;DHT22;7517;48.400;11.770;2022-09-23T15:38:22;21.50;52.40
14850;DHT22;7517;48.400;11.770;2022-09-23T15:40:51;21.50;52.50
14850;DHT22;7517;48.400;11.770;2022-09-23T15:43:20;21.50;52.50
14850;DHT22;7517;48.400;11.770;2022-09-23T15:45:50;21.40;52.20
14850;DHT22;7517;48.400;11.770;2022-09-23T15:48:21;21.40;52.10
14850;DHT22;7517;48.400;11.770;2022-09-23T15:50:53;21.40;52.30
14850;DHT22;7517;48.400;11.770;2022-09-23T15:53:26;21.40;52.40
14850;DHT22;7517;48.400;11.770;2022-09-23T15:55:57;21.40;52.30
14850;DHT22;7517;48.400;11.770;2022-09-23T15:58:25;21.40;52.40
14850;DHT22;7517;48.400;11.770;2022-09-23T16:00:54;21.40;52.40
14850;DHT22;7517;48.400;11.770;2022-09-23T16:03:23;21.40;52.50
14850;DHT22;7517;48.400;11.770;2022-09-23T16:05:58;21.30;52.40
14850;DHT22;7517;48.400;11.770;2022-09-23T16:08:29;21.30;52.50
14850;DHT22;7517;48.400;11.770;2022-09-23T16:10:57;21.30;52.70
14850;DHT22;7517;48.400;11.770;2022-09-23T16:13:24;21.30;52.90
14850;DHT22;7517;48.400;11.770;2022-09-23T16:15:51;21.30;53.30
14850;DHT22;7517;48.400;11.770;2022-09-23T16:18:22;21.30;53.70
14850;DHT22;7517;48.400;11.770;2022-09-23T16:20:49;21.20;54.00
14850;DHT22;7517;48.400;11.770;2022-09-23T16:23:22;21.20;54.40
14850;DHT22;7517;48.400;11.770;2022-09-23T16:26:02;21.20;54.70
14850;DHT22;7517;48.400;11.770;2022-09-23T16:28:32;21.10;55.00
14850;DHT22;7517;48.400;11.770;2022-09-23T16:31:00;21.00;55.10
14850;DHT22;7517;48.400;11.770;2022-09-23T16:33:27;21.00;55.20
14850;DHT22;7517;48.400;11.770;2022-09-23T16:35:55;20.90;55.30
14850;DHT22;7517;48.400;11.770;2022-09-23T16:38:25;20.80;55.40
14850;DHT22;7517;48.400;11.770;2022-09-23T16:40:53;20.80;55.60
14850;DHT22;7517;48.400;11.770;2022-09-23T16:43:26;20.70;55.70